sensor_id;sensor_type;location;lat;lon;timestamp;temperature;humidity
65568;DHT22;52211;50.154;8.682;2023-02-14T00:00:27;6.70;55.80
65568;DHT22;52211;50.154;8.682;2023-02-14T00:02:57;6.60;55.90
65568;DHT22;52211;50.154;8.682;2023-02-14T00:05:26;6.60;56.00
65568;DHT22;52211;50.154;8.682;2023-02-14T00:07:55;6.60;56.60
65568;DHT22;52211;50.154;8.682;2023-02-14T00:10:28;6.60;56.00
65568;DHT22;52211;50.154;8.682;2023-02-14T00:12:54;6.60;56.10
65568;DHT22;52211;50.154;8.682;2023-02-14T00:15:24;6.60;56.10
65568;DHT22;52211;50.154;8.682;2023-02-14T00:17:53;6.50;56.10
65568;DHT22;52211;50.154;8.682;2023-02-14T00:20:26;6.50;56.20
65568;DHT22;52211;50.154;8.682;2023-02-14T00:22:54;6.60;56.30
65568;DHT22;52211;50.154;8.682;2023-02-14T00:25:21;6.50;56.20
65568;DHT22;52211;50.154;8.682;2023-02-14T00:27:53;6.50;56.20
65568;DHT22;52211;50.154;8.682;2023-02-14T00:30:22;6.50;56.40
65568;DHT22;52211;50.154;8.682;2023-02-14T00:32:51;6.50;56.30
65568;DHT22;52211;50.154;8.682;2023-02-14T00:35:20;6.50;56.40
65568;DHT22;52211;50.154;8.682;2023-02-14T00:37:55;6.50;56.40
65568;DHT22;52211;50.154;8.682;2023-02-14T00:40:27;6.50;56.40
65568;DHT22;52211;50.154;8.682;2023-02-14T00:42:56;6.40;56.20
65568;DHT22;52211;50.154;8.682;2023-02-14T00:45:23;6.40;56.30
65568;DHT22;52211;50.154;8.682;2023-02-14T00:47:51;6.40;56.30
65568;DHT22;52211;50.154;8.682;2023-02-14T00:50:20;6.30;56.90
65568;DHT22;52211;50.154;8.682;2023-02-14T00:52:50;6.30;56.30
65568;DHT22;52211;50.154;8.682;2023-02-14T00:55:25;6.30;56.30
65568;DHT22;52211;50.154;8.682;2023-02-14T00:57:56;6.30;56.30
65568;DHT22;52211;50.154;8.682;2023-02-14T01:00:23;6.30;56.40
65568;DHT22;52211;50.154;8.682;2023-02-14T01:02:53;6.30;56.50
65568;DHT22;52211;50.154;8.682;2023-02-14T01:05:24;6.20;56.50
65568;DHT22;52211;50.154;8.682;2023-02-14T01:07:53;6.20;56.50
65568;DHT22;52211;50.154;8.682;2023-02-14T01:10:20;6.20;56.60
65568;DHT22;52211;50.154;8.682;2023-02-14T01:12:47;6.20;56.50
65568;DHT22;52211;50.154;8.682;2023-02-14T01:15:17;6.10;56.50
65568;DHT22;52211;50.154;8.682;2023-02-14T01:17:46;6.10;56.50
65568;DHT22;52211;50.154;8.682;2023-02-14T01:20:17;6.10;56.50
65568;DHT22;52211;50.154;8.682;2023-02-14T01:22:47;6.10;56.50
65568;DHT22;52211;50.154;8.682;2023-02-14T01:25:14;6.10;56.60
65568;DHT22;52211;50.154;8.682;2023-02-14T01:27:43;6.00;56.70
65568;DHT22;52211;50.154;8.682;2023-02-14T01:30:13;6.00;56.80
65568;DHT22;52211;50.154;8.682;2023-02-14T01:32:40;6.00;56.80
65568;DHT22;52211;50.154;8.682;2023-02-14T01:35:12;6.00;56.90
65568;DHT22;52211;50.154;8.682;2023-02-14T01:37:40;6.00;56.90
65568;DHT22;52211;50.154;8.682;2023-02-14T01:40:09;5.90;56.80
65568;DHT22;52211;50.154;8.682;2023-02-14T01:42:39;6.00;57.00
65568;DHT22;52211;50.154;8.682;2023-02-14T01:45:25;5.90;56.90
65568;DHT22;52211;50.154;8.682;2023-02-14T01:47:55;5.90;57.70
65568;DHT22;52211;50.154;8.682;2023-02-14T01:50:36;5.90;57.00
65568;DHT22;52211;50.154;8.682;2023-02-14T01:53:23;5.90;57.40
65568;DHT22;52211;50.154;8.682;2023-02-14T01:56:04;5.90;57.20
65568;DHT22;52211;50.154;8.682;2023-02-14T01:58:43;5.80;57.20
65568;DHT22;52211;50.154;8.682;2023-02-14T02:01:16;5.80;57.00
65568;DHT22;52211;50.154;8.682;2023-02-14T02:04:08;5.80;57.00
65568;DHT22;52211;50.154;8.682;2023-02-14T02:06:41;5.80;58.60
65568;DHT22;52211;50.154;8.682;2023-02-14T02:12:02;5.70;57.00
65568;DHT22;52211;50.154;8.682;2023-02-14T02:14:31;5.80;57.10
65568;DHT22;52211;50.154;8.682;2023-02-14T02:32:42;5.60;57.10
65568;DHT22;52211;50.154;8.682;2023-02-14T02:36:15;5.60;57.90
65568;DHT22;52211;50.154;8.682;2023-02-14T02:45:27;5.40;57.80
65568;DHT22;52211;50.154;8.682;2023-02-14T02:48:33;5.40;58.20
65568;DHT22;52211;50.154;8.682;2023-02-14T02:51:11;5.40;57.50
65568;DHT22;52211;50.154;8.682;2023-02-14T02:54:13;5.40;57.40
65568;DHT22;52211;50.154;8.682;2023-02-14T02:57:04;5.40;57.60
65568;DHT22;52211;50.154;8.682;2023-02-14T02:59:42;5.40;57.40
65568;DHT22;52211;50.154;8.682;2023-02-14T03:04:51;5.30;57.30
65568;DHT22;52211;50.154;8.682;2023-02-14T03:07:33;5.30;57.30
65568;DHT22;52211;50.154;8.682;2023-02-14T03:10:10;5.30;57.70
65568;DHT22;52211;50.154;8.682;2023-02-14T03:12:50;5.20;57.40
65568;DHT22;52211;50.154;8.682;2023-02-14T03:29:35;5.10;57.80
65568;DHT22;52211;50.154;8.682;2023-02-14T03:35:12;5.00;57.80
65568;DHT22;52211;50.154;8.682;2023-02-14T03:37:54;5.00;57.60
65568;DHT22;52211;50.154;8.682;2023-02-14T03:40:27;4.90;57.60
65568;DHT22;52211;50.154;8.682;2023-02-14T03:43:07;4.90;57.60
65568;DHT22;52211;50.154;8.682;2023-02-14T03:45:54;4.90;57.80
65568;DHT22;52211;50.154;8.682;2023-02-14T03:48:28;4.90;58.00
65568;DHT22;52211;50.154;8.682;2023-02-14T03:51:03;4.80;57.50
65568;DHT22;52211;50.154;8.682;2023-02-14T03:53:37;4.80;57.60
65568;DHT22;52211;50.154;8.682;2023-02-14T03:56:31;4.80;57.70
65568;DHT22;52211;50.154;8.682;2023-02-14T03:59:14;4.70;57.70
65568;DHT22;52211;50.154;8.682;2023-02-14T04:04:46;4.80;58.10
65568;DHT22;52211;50.154;8.682;2023-02-14T04:07:17;4.70;57.70
65568;DHT22;52211;50.154;8.682;2023-02-14T04:09:48;4.70;57.60
65568;DHT22;52211;50.154;8.682;2023-02-14T04:12:19;4.70;57.70
65568;DHT22;52211;50.154;8.682;2023-02-14T04:15:05;4.70;57.90
65568;DHT22;52211;50.154;8.682;2023-02-14T04:17:37;4.60;57.80
65568;DHT22;52211;50.154;8.682;2023-02-14T04:20:30;4.60;57.80
65568;DHT22;52211;50.154;8.682;2023-02-14T04:23:02;4.60;57.90
65568;DHT22;52211;50.154;8.682;2023-02-14T04:25:31;4.60;58.00
65568;DHT22;52211;50.154;8.682;2023-02-14T04:28:00;4.50;57.90
65568;DHT22;52211;50.154;8.682;2023-02-14T04:30:27;4.50;57.90
65568;DHT22;52211;50.154;8.682;2023-02-14T04:32:57;4.50;57.90
65568;DHT22;52211;50.154;8.682;2023-02-14T04:35:26;4.50;58.00
65568;DHT22;52211;50.154;8.682;2023-02-14T04:37:53;4.50;58.10
65568;DHT22;52211;50.154;8.682;2023-02-14T04:40:20;4.50;58.00
65568;DHT22;52211;50.154;8.682;2023-02-14T04:42:49;4.50;58.10
65568;DHT22;52211;50.154;8.682;2023-02-14T04:45:16;4.50;58.00
65568;DHT22;52211;50.154;8.682;2023-02-14T04:47:45;4.40;58.30
65568;DHT22;52211;50.154;8.682;2023-02-14T04:50:13;4.40;58.00
65568;DHT22;52211;50.154;8.682;2023-02-14T04:52:44;4.40;58.20
65568;DHT22;52211;50.154;8.682;2023-02-14T04:55:14;4.50;58.40
65568;DHT22;52211;50.154;8.682;2023-02-14T04:57:43;4.50;58.40
65568;DHT22;52211;50.154;8.682;2023-02-14T05:00:13;4.50;58.60
65568;DHT22;52211;50.154;8.682;2023-02-14T05:02:40;4.50;58.60
65568;DHT22;52211;50.154;8.682;2023-02-14T05:05:10;4.50;58.70
65568;DHT22;52211;50.154;8.682;2023-02-14T05:07:42;4.50;58.80
65568;DHT22;52211;50.154;8.682;2023-02-14T05:10:13;4.60;58.90
65568;DHT22;52211;50.154;8.682;2023-02-14T05:12:40;4.70;58.90
65568;DHT22;52211;50.154;8.682;2023-02-14T05:15:08;4.70;58.90
65568;DHT22;52211;50.154;8.682;2023-02-14T05:17:35;4.70;59.00
65568;DHT22;52211;50.154;8.682;2023-02-14T05:20:03;4.70;58.80
65568;DHT22;52211;50.154;8.682;2023-02-14T05:22:33;4.80;58.90
65568;DHT22;52211;50.154;8.682;2023-02-14T05:25:05;4.80;59.00
65568;DHT22;52211;50.154;8.682;2023-02-14T05:27:34;4.90;59.00
65568;DHT22;52211;50.154;8.682;2023-02-14T05:30:03;4.90;59.10
65568;DHT22;52211;50.154;8.682;2023-02-14T05:32:33;4.90;59.10
65568;DHT22;52211;50.154;8.682;2023-02-14T05:35:00;4.90;59.00
65568;DHT22;52211;50.154;8.682;2023-02-14T05:37:29;5.00;59.20
65568;DHT22;52211;50.154;8.682;2023-02-14T05:40:01;5.00;59.20
65568;DHT22;52211;50.154;8.682;2023-02-14T05:42:37;5.00;59.00
65568;DHT22;52211;50.154;8.682;2023-02-14T05:45:07;5.00;59.10
65568;DHT22;52211;50.154;8.682;2023-02-14T05:47:37;5.00;59.00
65568;DHT22;52211;50.154;8.682;2023-02-14T05:50:08;5.10;59.40
65568;DHT22;52211;50.154;8.682;2023-02-14T05:52:39;5.10;59.40
65568;DHT22;52211;50.154;8.682;2023-02-14T05:55:07;5.20;59.40
65568;DHT22;52211;50.154;8.682;2023-02-14T05:57:34;5.20;59.20
65568;DHT22;52211;50.154;8.682;2023-02-14T06:00:03;5.20;59.20
65568;DHT22;52211;50.154;8.682;2023-02-14T06:02:40;5.20;59.20
65568;DHT22;52211;50.154;8.682;2023-02-14T06:05:09;5.20;59.40
65568;DHT22;52211;50.154;8.682;2023-02-14T06:07:36;5.20;59.20
65568;DHT22;52211;50.154;8.682;2023-02-14T06:10:11;5.20;59.40
65568;DHT22;52211;50.154;8.682;2023-02-14T06:12:42;5.20;59.40
65568;DHT22;52211;50.154;8.682;2023-02-14T06:15:10;5.30;59.60
65568;DHT22;52211;50.154;8.682;2023-02-14T06:17:42;5.30;59.60
65568;DHT22;52211;50.154;8.682;2023-02-14T06:20:12;5.30;59.80
65568;DHT22;52211;50.154;8.682;2023-02-14T06:22:42;5.30;59.60
65568;DHT22;52211;50.154;8.682;2023-02-14T06:25:11;5.40;59.70
65568;DHT22;52211;50.154;8.682;2023-02-14T06:27:38;5.40;59.80
65568;DHT22;52211;50.154;8.682;2023-02-14T06:30:05;5.50;59.80
65568;DHT22;52211;50.154;8.682;2023-02-14T06:32:35;5.50;59.80
65568;DHT22;52211;50.154;8.682;2023-02-14T06:35:05;5.50;59.80
65568;DHT22;52211;50.154;8.682;2023-02-14T06:37:33;5.60;59.80
65568;DHT22;52211;50.154;8.682;2023-02-14T06:40:00;5.60;59.90
65568;DHT22;52211;50.154;8.682;2023-02-14T06:42:27;5.60;59.90
65568;DHT22;52211;50.154;8.682;2023-02-14T06:44:54;5.60;59.80
65568;DHT22;52211;50.154;8.682;2023-02-14T06:47:25;5.70;60.00
65568;DHT22;52211;50.154;8.682;2023-02-14T06:49:52;5.70;60.00
65568;DHT22;52211;50.154;8.682;2023-02-14T06:52:21;5.80;60.50
65568;DHT22;52211;50.154;8.682;2023-02-14T06:54:48;5.80;59.70
65568;DHT22;52211;50.154;8.682;2023-02-14T06:57:15;5.80;59.70
65568;DHT22;52211;50.154;8.682;2023-02-14T06:59:42;5.80;59.60
65568;DHT22;52211;50.154;8.682;2023-02-14T07:02:14;5.90;59.70
65568;DHT22;52211;50.154;8.682;2023-02-14T07:04:45;5.80;59.70
65568;DHT22;52211;50.154;8.682;2023-02-14T07:07:12;5.90;59.70
65568;DHT22;52211;50.154;8.682;2023-02-14T07:09:41;5.90;59.80
65568;DHT22;52211;50.154;8.682;2023-02-14T07:12:11;5.90;59.70
65568;DHT22;52211;50.154;8.682;2023-02-14T07:14:44;5.90;59.80
65568;DHT22;52211;50.154;8.682;2023-02-14T07:17:13;5.90;59.90
65568;DHT22;52211;50.154;8.682;2023-02-14T07:19:42;5.90;60.60
65568;DHT22;52211;50.154;8.682;2023-02-14T07:22:09;5.90;60.00
65568;DHT22;52211;50.154;8.682;2023-02-14T07:24:35;6.00;60.00
65568;DHT22;52211;50.154;8.682;2023-02-14T07:27:05;6.00;60.00
65568;DHT22;52211;50.154;8.682;2023-02-14T07:29:39;6.00;59.90
65568;DHT22;52211;50.154;8.682;2023-02-14T07:32:08;6.00;60.00
65568;DHT22;52211;50.154;8.682;2023-02-14T07:34:37;6.10;60.10
65568;DHT22;52211;50.154;8.682;2023-02-14T07:37:06;6.10;59.90
65568;DHT22;52211;50.154;8.682;2023-02-14T07:39:36;6.20;59.90
65568;DHT22;52211;50.154;8.682;2023-02-14T07:42:08;6.10;59.80
65568;DHT22;52211;50.154;8.682;2023-02-14T07:44:38;6.20;59.90
65568;DHT22;52211;50.154;8.682;2023-02-14T07:47:06;6.10;59.80
65568;DHT22;52211;50.154;8.682;2023-02-14T07:49:35;6.20;59.80
65568;DHT22;52211;50.154;8.682;2023-02-14T07:52:06;6.20;59.80
65568;DHT22;52211;50.154;8.682;2023-02-14T07:54:38;6.20;59.90
65568;DHT22;52211;50.154;8.682;2023-02-14T07:57:07;6.20;59.80
65568;DHT22;52211;50.154;8.682;2023-02-14T07:59:37;6.20;59.90
65568;DHT22;52211;50.154;8.682;2023-02-14T08:02:06;6.20;59.90
65568;DHT22;52211;50.154;8.682;2023-02-14T08:04:35;6.20;59.80
65568;DHT22;52211;50.154;8.682;2023-02-14T08:07:06;6.20;59.80
65568;DHT22;52211;50.154;8.682;2023-02-14T08:09:41;6.20;59.90
65568;DHT22;52211;50.154;8.682;2023-02-14T08:12:13;6.20;60.40
65568;DHT22;52211;50.154;8.682;2023-02-14T08:15:03;6.20;59.90
65568;DHT22;52211;50.154;8.682;2023-02-14T08:17:54;6.20;60.00
65568;DHT22;52211;50.154;8.682;2023-02-14T08:20:24;6.30;60.00
65568;DHT22;52211;50.154;8.682;2023-02-14T08:22:55;6.30;59.80
65568;DHT22;52211;50.154;8.682;2023-02-14T08:25:22;6.30;59.70
65568;DHT22;52211;50.154;8.682;2023-02-14T08:27:51;6.30;59.70
65568;DHT22;52211;50.154;8.682;2023-02-14T08:30:21;6.30;59.80
65568;DHT22;52211;50.154;8.682;2023-02-14T08:32:49;6.20;59.70
65568;DHT22;52211;50.154;8.682;2023-02-14T08:35:18;6.20;59.70
65568;DHT22;52211;50.154;8.682;2023-02-14T08:37:47;6.20;59.70
65568;DHT22;52211;50.154;8.682;2023-02-14T08:40:17;6.20;59.60
65568;DHT22;52211;50.154;8.682;2023-02-14T08:42:48;6.20;59.70
65568;DHT22;52211;50.154;8.682;2023-02-14T08:45:21;6.20;59.80
65568;DHT22;52211;50.154;8.682;2023-02-14T08:47:50;6.20;59.90
65568;DHT22;52211;50.154;8.682;2023-02-14T08:50:17;6.10;60.00
65568;DHT22;52211;50.154;8.682;2023-02-14T08:52:45;6.10;60.00
65568;DHT22;52211;50.154;8.682;2023-02-14T08:55:14;6.20;60.00
65568;DHT22;52211;50.154;8.682;2023-02-14T08:57:41;6.20;60.00
65568;DHT22;52211;50.154;8.682;2023-02-14T09:00:13;6.20;60.10
65568;DHT22;52211;50.154;8.682;2023-02-14T09:02:49;6.20;60.10
65568;DHT22;52211;50.154;8.682;2023-02-14T09:05:20;6.30;60.20
65568;DHT22;52211;50.154;8.682;2023-02-14T09:07:50;6.30;60.20
65568;DHT22;52211;50.154;8.682;2023-02-14T09:10:23;6.30;60.20
65568;DHT22;52211;50.154;8.682;2023-02-14T09:12:56;6.30;60.30
65568;DHT22;52211;50.154;8.682;2023-02-14T09:15:23;6.40;60.20
65568;DHT22;52211;50.154;8.682;2023-02-14T09:17:54;6.40;60.20
65568;DHT22;52211;50.154;8.682;2023-02-14T09:20:24;6.40;60.10
65568;DHT22;52211;50.154;8.682;2023-02-14T09:22:55;6.40;60.00
65568;DHT22;52211;50.154;8.682;2023-02-14T09:25:27;6.30;59.70
65568;DHT22;52211;50.154;8.682;2023-02-14T09:27:59;6.40;59.90
65568;DHT22;52211;50.154;8.682;2023-02-14T09:30:26;6.40;60.10
65568;DHT22;52211;50.154;8.682;2023-02-14T09:32:55;6.30;60.00
65568;DHT22;52211;50.154;8.682;2023-02-14T09:35:31;6.30;60.00
65568;DHT22;52211;50.154;8.682;2023-02-14T09:38:16;6.30;60.00
65568;DHT22;52211;50.154;8.682;2023-02-14T09:40:46;6.30;59.90
65568;DHT22;52211;50.154;8.682;2023-02-14T09:43:21;6.30;60.20
65568;DHT22;52211;50.154;8.682;2023-02-14T09:45:58;6.20;60.30
65568;DHT22;52211;50.154;8.682;2023-02-14T09:48:31;6.30;60.40
65568;DHT22;52211;50.154;8.682;2023-02-14T09:51:18;6.30;60.40
65568;DHT22;52211;50.154;8.682;2023-02-14T09:53:56;6.40;60.90
65568;DHT22;52211;50.154;8.682;2023-02-14T09:56:36;6.40;60.50
65568;DHT22;52211;50.154;8.682;2023-02-14T09:59:49;6.50;60.60
65568;DHT22;52211;50.154;8.682;2023-02-14T10:02:50;6.50;60.80
65568;DHT22;52211;50.154;8.682;2023-02-14T10:05:29;6.50;60.30
65568;DHT22;52211;50.154;8.682;2023-02-14T10:11:23;6.60;60.70
65568;DHT22;52211;50.154;8.682;2023-02-14T10:14:14;6.60;60.20
65568;DHT22;52211;50.154;8.682;2023-02-14T10:16:58;6.60;60.90
65568;DHT22;52211;50.154;8.682;2023-02-14T10:19:36;6.60;60.70
65568;DHT22;52211;50.154;8.682;2023-02-14T10:22:15;6.70;60.30
65568;DHT22;52211;50.154;8.682;2023-02-14T10:24:57;6.70;60.40
65568;DHT22;52211;50.154;8.682;2023-02-14T10:27:33;6.70;60.40
65568;DHT22;52211;50.154;8.682;2023-02-14T10:30:15;6.70;60.20
65568;DHT22;52211;50.154;8.682;2023-02-14T10:32:55;6.70;60.50
65568;DHT22;52211;50.154;8.682;2023-02-14T10:35:41;6.80;60.30
65568;DHT22;52211;50.154;8.682;2023-02-14T10:41:18;6.80;60.90
65568;DHT22;52211;50.154;8.682;2023-02-14T10:50:06;6.90;60.50
65568;DHT22;52211;50.154;8.682;2023-02-14T10:53:10;6.90;60.30
65568;DHT22;52211;50.154;8.682;2023-02-14T10:55:56;6.90;60.70
65568;DHT22;52211;50.154;8.682;2023-02-14T10:58:31;7.00;60.60
65568;DHT22;52211;50.154;8.682;2023-02-14T11:01:15;7.00;60.40
65568;DHT22;52211;50.154;8.682;2023-02-14T11:03:57;7.00;60.60
65568;DHT22;52211;50.154;8.682;2023-02-14T11:06:39;7.10;60.60
65568;DHT22;52211;50.154;8.682;2023-02-14T11:09:10;7.10;60.30
65568;DHT22;52211;50.154;8.682;2023-02-14T11:14:18;7.10;60.30
65568;DHT22;52211;50.154;8.682;2023-02-14T11:16:47;7.10;60.20
65568;DHT22;52211;50.154;8.682;2023-02-14T11:19:32;7.20;60.30
65568;DHT22;52211;50.154;8.682;2023-02-14T11:22:05;7.20;60.70
65568;DHT22;52211;50.154;8.682;2023-02-14T11:24:39;7.20;60.40
65568;DHT22;52211;50.154;8.682;2023-02-14T11:29:47;7.30;60.30
65568;DHT22;52211;50.154;8.682;2023-02-14T11:32:24;7.40;60.40
65568;DHT22;52211;50.154;8.682;2023-02-14T11:35:19;7.40;60.30
65568;DHT22;52211;50.154;8.682;2023-02-14T11:37:51;7.40;60.70
65568;DHT22;52211;50.154;8.682;2023-02-14T11:40:42;7.50;60.30
65568;DHT22;52211;50.154;8.682;2023-02-14T11:45:45;7.50;60.10
65568;DHT22;52211;50.154;8.682;2023-02-14T11:51:10;7.60;60.00
65568;DHT22;52211;50.154;8.682;2023-02-14T11:53:55;7.50;59.90
65568;DHT22;52211;50.154;8.682;2023-02-14T11:56:51;7.50;60.10
65568;DHT22;52211;50.154;8.682;2023-02-14T12:05:05;7.60;60.40
65568;DHT22;52211;50.154;8.682;2023-02-14T12:07:49;7.70;60.30
65568;DHT22;52211;50.154;8.682;2023-02-14T12:24:40;7.90;60.20
65568;DHT22;52211;50.154;8.682;2023-02-14T12:27:36;7.90;60.10
65568;DHT22;52211;50.154;8.682;2023-02-14T12:30:20;7.90;60.10
65568;DHT22;52211;50.154;8.682;2023-02-14T12:32:51;8.00;60.10
65568;DHT22;52211;50.154;8.682;2023-02-14T12:41:39;8.10;60.20
65568;DHT22;52211;50.154;8.682;2023-02-14T12:47:43;8.20;60.30
65568;DHT22;52211;50.154;8.682;2023-02-14T13:06:00;8.40;60.10
65568;DHT22;52211;50.154;8.682;2023-02-14T13:08:53;8.40;60.10
65568;DHT22;52211;50.154;8.682;2023-02-14T13:20:58;8.50;59.60
65568;DHT22;52211;50.154;8.682;2023-02-14T13:28:43;8.60;59.80
65568;DHT22;52211;50.154;8.682;2023-02-14T13:31:17;8.60;59.80
65568;DHT22;52211;50.154;8.682;2023-02-14T13:34:05;8.70;59.80
65568;DHT22;52211;50.154;8.682;2023-02-14T13:36:39;8.70;59.90
65568;DHT22;52211;50.154;8.682;2023-02-14T13:39:19;8.70;59.80
65568;DHT22;52211;50.154;8.682;2023-02-14T13:41:51;8.80;59.70
65568;DHT22;52211;50.154;8.682;2023-02-14T13:44:42;8.80;59.60
65568;DHT22;52211;50.154;8.682;2023-02-14T13:47:23;8.80;59.60
65568;DHT22;52211;50.154;8.682;2023-02-14T13:49:59;8.80;59.60
65568;DHT22;52211;50.154;8.682;2023-02-14T13:52:57;8.80;59.60
65568;DHT22;52211;50.154;8.682;2023-02-14T13:55:34;8.80;59.70
65568;DHT22;52211;50.154;8.682;2023-02-14T13:58:14;8.80;59.80
65568;DHT22;52211;50.154;8.682;2023-02-14T14:00:45;8.80;59.80
65568;DHT22;52211;50.154;8.682;2023-02-14T14:06:14;8.80;59.60
65568;DHT22;52211;50.154;8.682;2023-02-14T14:08:49;8.90;59.70
65568;DHT22;52211;50.154;8.682;2023-02-14T14:14:46;8.90;59.50
65568;DHT22;52211;50.154;8.682;2023-02-14T14:16:58;8.90;59.60
65568;DHT22;52211;50.154;8.682;2023-02-14T14:22:06;8.80;59.10
65568;DHT22;52211;50.154;8.682;2023-02-14T14:24:39;8.80;59.30
65568;DHT22;52211;50.154;8.682;2023-02-14T14:30:06;9.00;60.10
65568;DHT22;52211;50.154;8.682;2023-02-14T14:36:05;9.40;60.10
65568;DHT22;52211;50.154;8.682;2023-02-14T14:38:48;9.60;60.00
65568;DHT22;52211;50.154;8.682;2023-02-14T14:41:27;9.80;59.80
65568;DHT22;52211;50.154;8.682;2023-02-14T14:43:57;9.80;59.40
65568;DHT22;52211;50.154;8.682;2023-02-14T14:46:27;9.90;59.30
65568;DHT22;52211;50.154;8.682;2023-02-14T14:48:57;9.90;59.20
65568;DHT22;52211;50.154;8.682;2023-02-14T14:51:27;10.00;58.90
65568;DHT22;52211;50.154;8.682;2023-02-14T14:54:07;10.00;58.90
65568;DHT22;52211;50.154;8.682;2023-02-14T14:56:53;10.10;58.80
65568;DHT22;52211;50.154;8.682;2023-02-14T14:59:30;10.20;58.60
65568;DHT22;52211;50.154;8.682;2023-02-14T15:02:19;10.30;58.60
65568;DHT22;52211;50.154;8.682;2023-02-14T15:04:47;10.30;58.60
65568;DHT22;52211;50.154;8.682;2023-02-14T15:07:31;10.40;58.70
65568;DHT22;52211;50.154;8.682;2023-02-14T15:10:03;10.40;58.60
65568;DHT22;52211;50.154;8.682;2023-02-14T15:12:51;10.40;58.60
65568;DHT22;52211;50.154;8.682;2023-02-14T15:15:40;10.40;58.60
65568;DHT22;52211;50.154;8.682;2023-02-14T15:18:20;10.50;58.60
65568;DHT22;52211;50.154;8.682;2023-02-14T15:20:55;10.50;58.50
65568;DHT22;52211;50.154;8.682;2023-02-14T15:23:29;10.50;58.40
65568;DHT22;52211;50.154;8.682;2023-02-14T15:26:01;10.40;58.20
65568;DHT22;52211;50.154;8.682;2023-02-14T15:28:36;10.50;58.20
65568;DHT22;52211;50.154;8.682;2023-02-14T15:31:07;10.50;58.00
65568;DHT22;52211;50.154;8.682;2023-02-14T15:33:35;10.50;57.90
65568;DHT22;52211;50.154;8.682;2023-02-14T15:36:07;10.40;57.90
65568;DHT22;52211;50.154;8.682;2023-02-14T15:38:53;10.40;57.80
65568;DHT22;52211;50.154;8.682;2023-02-14T15:41:23;10.30;57.70
65568;DHT22;52211;50.154;8.682;2023-02-14T15:43:56;10.30;57.70
65568;DHT22;52211;50.154;8.682;2023-02-14T15:49:15;10.10;57.70
65568;DHT22;52211;50.154;8.682;2023-02-14T15:51:49;10.00;57.60
65568;DHT22;52211;50.154;8.682;2023-02-14T15:54:34;9.80;57.70
65568;DHT22;52211;50.154;8.682;2023-02-14T15:57:05;9.70;57.70
65568;DHT22;52211;50.154;8.682;2023-02-14T15:59:44;9.60;57.80
65568;DHT22;52211;50.154;8.682;2023-02-14T16:02:32;9.50;57.90
65568;DHT22;52211;50.154;8.682;2023-02-14T16:05:16;9.40;58.00
65568;DHT22;52211;50.154;8.682;2023-02-14T16:15:35;9.10;58.10
65568;DHT22;52211;50.154;8.682;2023-02-14T16:18:18;8.90;58.20
65568;DHT22;52211;50.154;8.682;2023-02-14T16:26:34;8.70;58.40
65568;DHT22;52211;50.154;8.682;2023-02-14T16:29:10;8.60;58.40
65568;DHT22;52211;50.154;8.682;2023-02-14T16:32:08;8.50;58.50
65568;DHT22;52211;50.154;8.682;2023-02-14T16:34:43;8.50;58.70
65568;DHT22;52211;50.154;8.682;2023-02-14T16:37:29;8.40;58.60
65568;DHT22;52211;50.154;8.682;2023-02-14T16:40:02;8.30;58.70
65568;DHT22;52211;50.154;8.682;2023-02-14T16:42:31;8.30;58.70
65568;DHT22;52211;50.154;8.682;2023-02-14T16:45:00;8.20;58.70
65568;DHT22;52211;50.154;8.682;2023-02-14T16:47:27;8.10;58.80
65568;DHT22;52211;50.154;8.682;2023-02-14T16:49:54;8.00;58.80
65568;DHT22;52211;50.154;8.682;2023-02-14T16:52:27;8.00;58.80
65568;DHT22;52211;50.154;8.682;2023-02-14T16:55:00;7.90;58.90
65568;DHT22;52211;50.154;8.682;2023-02-14T16:57:34;7.90;59.00
65568;DHT22;52211;50.154;8.682;2023-02-14T17:00:11;7.80;59.00
65568;DHT22;52211;50.154;8.682;2023-02-14T17:02:39;7.70;58.90
65568;DHT22;52211;50.154;8.682;2023-02-14T17:05:10;7.70;59.10
65568;DHT22;52211;50.154;8.682;2023-02-14T17:07:41;7.60;59.10
65568;DHT22;52211;50.154;8.682;2023-02-14T17:10:18;7.50;59.20
65568;DHT22;52211;50.154;8.682;2023-02-14T17:12:48;7.40;59.20
65568;DHT22;52211;50.154;8.682;2023-02-14T17:15:19;7.40;59.20
65568;DHT22;52211;50.154;8.682;2023-02-14T17:17:48;7.30;59.30
65568;DHT22;52211;50.154;8.682;2023-02-14T17:20:17;7.30;59.40
65568;DHT22;52211;50.154;8.682;2023-02-14T17:22:48;7.20;59.30
65568;DHT22;52211;50.154;8.682;2023-02-14T17:25:15;7.20;59.40
65568;DHT22;52211;50.154;8.682;2023-02-14T17:27:44;7.10;59.40
65568;DHT22;52211;50.154;8.682;2023-02-14T17:30:12;7.10;59.60
65568;DHT22;52211;50.154;8.682;2023-02-14T17:32:41;7.00;59.50
65568;DHT22;52211;50.154;8.682;2023-02-14T17:35:08;7.00;59.60
65568;DHT22;52211;50.154;8.682;2023-02-14T17:37:38;6.90;59.60
65568;DHT22;52211;50.154;8.682;2023-02-14T17:40:06;6.90;59.60
65568;DHT22;52211;50.154;8.682;2023-02-14T17:42:40;6.80;59.50
65568;DHT22;52211;50.154;8.682;2023-02-14T17:45:08;6.80;59.60
65568;DHT22;52211;50.154;8.682;2023-02-14T17:47:40;6.80;59.60
65568;DHT22;52211;50.154;8.682;2023-02-14T17:50:14;6.70;59.60
65568;DHT22;52211;50.154;8.682;2023-02-14T17:52:46;6.70;59.60
65568;DHT22;52211;50.154;8.682;2023-02-14T17:55:15;6.60;59.60
65568;DHT22;52211;50.154;8.682;2023-02-14T17:57:42;6.60;59.70
65568;DHT22;52211;50.154;8.682;2023-02-14T18:00:10;6.50;59.70
65568;DHT22;52211;50.154;8.682;2023-02-14T18:02:44;6.50;59.70
65568;DHT22;52211;50.154;8.682;2023-02-14T18:05:11;6.50;59.80
65568;DHT22;52211;50.154;8.682;2023-02-14T18:07:40;6.40;59.80
65568;DHT22;52211;50.154;8.682;2023-02-14T18:10:11;6.40;59.90
65568;DHT22;52211;50.154;8.682;2023-02-14T18:12:38;6.40;60.00
65568;DHT22;52211;50.154;8.682;2023-02-14T18:15:05;6.30;59.90
65568;DHT22;52211;50.154;8.682;2023-02-14T18:17:34;6.30;59.90
65568;DHT22;52211;50.154;8.682;2023-02-14T18:20:04;6.20;59.90
65568;DHT22;52211;50.154;8.682;2023-02-14T18:22:32;6.20;59.90
65568;DHT22;52211;50.154;8.682;2023-02-14T18:24:59;6.20;60.00
65568;DHT22;52211;50.154;8.682;2023-02-14T18:27:33;6.20;60.00
65568;DHT22;52211;50.154;8.682;2023-02-14T18:29:59;6.10;60.10
65568;DHT22;52211;50.154;8.682;2023-02-14T18:32:29;6.10;60.10
65568;DHT22;52211;50.154;8.682;2023-02-14T18:34:56;6.10;60.20
65568;DHT22;52211;50.154;8.682;2023-02-14T18:37:27;6.00;60.20
65568;DHT22;52211;50.154;8.682;2023-02-14T18:39:57;6.00;60.20
65568;DHT22;52211;50.154;8.682;2023-02-14T18:42:23;5.90;60.30
65568;DHT22;52211;50.154;8.682;2023-02-14T18:44:53;5.90;60.30
65568;DHT22;52211;50.154;8.682;2023-02-14T18:47:20;5.90;60.30
65568;DHT22;52211;50.154;8.682;2023-02-14T18:49:59;5.90;60.40
65568;DHT22;52211;50.154;8.682;2023-02-14T18:52:28;5.90;60.40
65568;DHT22;52211;50.154;8.682;2023-02-14T18:55:00;5.80;60.30
65568;DHT22;52211;50.154;8.682;2023-02-14T18:57:27;5.80;60.40
65568;DHT22;52211;50.154;8.682;2023-02-14T18:59:53;5.70;60.40
65568;DHT22;52211;50.154;8.682;2023-02-14T19:02:23;5.80;60.50
65568;DHT22;52211;50.154;8.682;2023-02-14T19:04:49;5.80;60.60
65568;DHT22;52211;50.154;8.682;2023-02-14T19:07:19;5.70;60.60